Time;durP1;ratioP1;P1;durP2;ratioP2;P2;SDS_P1;SDS_P2;PMS_P1;PMS_P2;Temp;Humidity;BMP_temperature;BMP_pressure;BME280_temperature;BME280_humidity;BME280_pressure;Samples;Min_cycle;Max_cycle;Signal;HPM_P1;HPM_P2
2023/09/16 00:00:32;;;;;;;3.55;2.08;;;17.00;99.90;;;;;;5102188;28;20032;-69
2023/09/16 00:02:59;;;;;;;4.32;2.47;;;17.00;99.90;;;;;;5104223;28;20067;-68
2023/09/16 00:05:25;;;;;;;3.55;2.28;;;16.90;99.90;;;;;;5105491;28;20459;-68
2023/09/16 00:07:50;;;;;;;3.25;2.30;;;16.90;99.90;;;;;;5105312;28;20054;-68
2023/09/16 00:10:16;;;;;;;4.70;2.60;;;16.90;99.90;;;;;;5105579;28;20024;-69
2023/09/16 00:12:42;;;;;;;3.38;2.35;;;16.90;99.90;;;;;;5105430;28;20459;-68
2023/09/16 00:15:08;;;;;;;3.80;2.35;;;16.80;99.90;;;;;;5100950;28;20118;-68
2023/09/16 00:17:34;;;;;;;7.45;2.58;;;16.80;99.90;;;;;;5105225;28;20077;-68
2023/09/16 00:20:00;;;;;;;3.55;2.22;;;16.80;99.90;;;;;;5097466;28;20490;-68
2023/09/16 00:22:26;;;;;;;4.70;2.53;;;16.80;99.90;;;;;;5103200;28;20031;-68
2023/09/16 00:24:52;;;;;;;3.20;2.40;;;16.70;99.90;;;;;;5104766;28;20379;-68
2023/09/16 00:27:18;;;;;;;3.17;2.20;;;16.70;99.90;;;;;;5105332;28;20028;-68
2023/09/16 00:29:43;;;;;;;3.30;2.25;;;16.70;99.90;;;;;;5100555;28;20487;-68
2023/09/16 00:32:10;;;;;;;3.83;2.38;;;16.60;99.90;;;;;;5103682;28;20036;-68
2023/09/16 00:34:35;;;;;;;3.95;1.83;;;16.60;99.90;;;;;;5105015;28;20032;-68
2023/09/16 00:37:01;;;;;;;3.28;2.28;;;16.60;99.90;;;;;;5103692;28;20403;-68
2023/09/16 00:39:27;;;;;;;2.78;2.00;;;16.60;99.90;;;;;;5102921;28;20073;-68
2023/09/16 00:41:53;;;;;;;3.75;2.40;;;16.50;99.90;;;;;;5102021;28;20032;-68
2023/09/16 00:44:18;;;;;;;4.30;2.22;;;16.50;99.90;;;;;;5104725;28;20052;-68
2023/09/16 00:46:44;;;;;;;3.65;2.40;;;16.40;99.90;;;;;;5106353;28;20118;-68
2023/09/16 00:49:10;;;;;;;7.32;2.20;;;16.40;99.90;;;;;;5105204;28;20035;-68
2023/09/16 00:51:40;;;;;;;4.45;2.58;;;16.40;99.90;;;;;;5103490;28;20035;-68
2023/09/16 00:54:07;;;;;;;3.95;2.28;;;16.40;99.90;;;;;;5101479;28;20024;-68
2023/09/16 00:56:34;;;;;;;3.33;2.03;;;16.40;99.90;;;;;;5105114;28;20038;-68
2023/09/16 00:59:00;;;;;;;5.25;2.45;;;16.30;99.90;;;;;;5103568;28;20050;-68
2023/09/16 01:01:26;;;;;;;4.28;2.40;;;16.30;99.90;;;;;;5103274;28;20031;-68
2023/09/16 01:03:53;;;;;;;4.70;2.40;;;16.30;99.90;;;;;;5104565;28;20035;-68
2023/09/16 01:06:19;;;;;;;3.65;2.25;;;16.30;99.90;;;;;;5102378;28;20487;-68
2023/09/16 01:08:46;;;;;;;5.22;2.53;;;16.30;99.90;;;;;;5104591;28;20035;-68
2023/09/16 01:11:12;;;;;;;4.00;2.20;;;16.20;99.90;;;;;;5104533;28;20149;-68
2023/09/16 01:13:39;;;;;;;4.00;1.90;;;16.20;99.90;;;;;;5101796;28;20024;-68
2023/09/16 01:16:16;;;;;;;4.07;2.30;;;16.20;99.90;;;;;;5103343;28;20023;-68
2023/09/16 01:18:47;;;;;;;2.78;2.00;;;16.20;99.90;;;;;;5101006;28;20585;-68
2023/09/16 01:21:15;;;;;;;2.80;1.80;;;16.20;99.90;;;;;;5103262;28;20035;-68
2023/09/16 01:23:42;;;;;;;4.13;2.50;;;16.10;99.90;;;;;;5106574;28;20046;-68
2023/09/16 01:26:08;;;;;;;4.25;2.40;;;16.20;99.90;;;;;;5098796;28;20023;-69
2023/09/16 01:28:34;;;;;;;7.03;2.72;;;16.20;99.90;;;;;;5096183;28;20391;-68
2023/09/16 01:31:00;;;;;;;4.90;2.47;;;16.10;99.90;;;;;;5106428;28;20130;-68
2023/09/16 01:33:44;;;;;;;3.40;2.33;;;16.20;99.90;;;;;;5097625;28;20028;-68
2023/09/16 01:36:14;;;;;;;5.30;2.40;;;16.10;99.90;;;;;;5098377;28;20068;-68
2023/09/16 01:38:43;;;;;;;3.88;2.38;;;16.10;99.90;;;;;;5105169;28;20024;-68
2023/09/16 01:41:10;;;;;;;3.55;2.35;;;16.10;99.90;;;;;;5105691;28;20027;-68
2023/09/16 01:43:37;;;;;;;3.78;2.42;;;16.10;99.90;;;;;;5107895;28;20030;-68
2023/09/16 01:46:03;;;;;;;4.95;2.28;;;16.00;99.90;;;;;;5107741;28;20028;-68
2023/09/16 01:48:29;;;;;;;4.18;2.35;;;16.10;99.90;;;;;;5107879;28;20088;-68
2023/09/16 01:50:55;;;;;;;3.33;2.25;;;16.10;99.90;;;;;;5106414;28;20035;-68
2023/09/16 01:53:21;;;;;;;5.07;2.53;;;16.10;99.90;;;;;;5105963;28;20089;-68
2023/09/16 01:55:46;;;;;;;4.10;2.22;;;16.10;99.90;;;;;;5107688;28;20024;-68
2023/09/16 01:58:13;;;;;;;3.42;2.08;;;16.00;99.90;;;;;;5106101;28;20035;-68
2023/09/16 02:00:38;;;;;;;3.00;2.25;;;16.00;99.90;;;;;;5103147;28;20073;-68
2023/09/16 02:03:04;;;;;;;3.80;2.00;;;16.00;99.90;;;;;;5105411;28;20028;-68
2023/09/16 02:05:30;;;;;;;4.95;2.08;;;16.00;99.90;;;;;;5105812;28;20073;-68
2023/09/16 02:07:58;;;;;;;3.97;2.08;;;16.00;99.90;;;;;;5105831;28;20028;-68
2023/09/16 02:10:23;;;;;;;3.90;2.25;;;16.00;99.90;;;;;;5099481;28;20074;-68
2023/09/16 02:12:51;;;;;;;5.55;2.15;;;15.90;99.90;;;;;;5105855;28;20031;-68
2023/09/16 02:15:17;;;;;;;3.15;1.80;;;15.90;99.90;;;;;;5106681;28;20024;-68
2023/09/16 02:17:44;;;;;;;4.90;2.60;;;15.90;99.90;;;;;;5104725;28;20034;-68
2023/09/16 02:20:11;;;;;;;3.88;2.38;;;15.80;99.90;;;;;;5105641;28;20031;-68
2023/09/16 02:22:38;;;;;;;2.75;1.80;;;15.90;99.90;;;;;;5105620;28;20035;-68
2023/09/16 02:25:04;;;;;;;4.38;2.20;;;15.80;99.90;;;;;;5105260;28;20123;-68
2023/09/16 02:27:30;;;;;;;4.38;2.13;;;15.80;99.90;;;;;;5107009;28;20024;-68
2023/09/16 02:29:56;;;;;;;2.80;2.20;;;15.80;99.90;;;;;;5102427;28;20621;-68
2023/09/16 02:32:22;;;;;;;4.70;2.03;;;15.80;99.90;;;;;;5105145;28;20028;-68
2023/09/16 02:34:48;;;;;;;4.57;2.20;;;15.80;99.90;;;;;;5104740;28;20045;-68
2023/09/16 02:37:13;;;;;;;3.38;2.28;;;15.70;99.90;;;;;;5105161;28;20055;-68
2023/09/16 02:39:39;;;;;;;3.20;2.17;;;15.70;99.90;;;;;;5106608;28;20039;-68
2023/09/16 02:42:06;;;;;;;5.20;2.30;;;15.70;99.90;;;;;;5104796;28;20860;-68
2023/09/16 02:44:33;;;;;;;4.63;2.35;;;15.70;99.90;;;;;;5104618;28;20041;-68
2023/09/16 02:46:58;;;;;;;4.13;1.80;;;15.70;99.90;;;;;;5104827;28;20031;-68
2023/09/16 02:49:26;;;;;;;5.95;2.53;;;15.70;99.90;;;;;;5104763;28;20039;-68
2023/09/16 02:51:52;;;;;;;4.00;2.38;;;15.70;99.90;;;;;;5104247;28;20035;-68
2023/09/16 02:54:17;;;;;;;4.07;1.83;;;15.70;99.90;;;;;;5102738;28;20035;-68
2023/09/16 02:56:43;;;;;;;4.82;2.42;;;15.70;99.90;;;;;;5101432;28;20032;-68
2023/09/16 02:59:09;;;;;;;4.43;2.35;;;15.60;99.90;;;;;;5104528;28;20023;-68
2023/09/16 03:01:35;;;;;;;2.95;2.13;;;15.60;99.90;;;;;;5104730;28;20080;-69
2023/09/16 03:04:01;;;;;;;3.50;1.90;;;15.60;99.90;;;;;;5102967;28;20032;-69
2023/09/16 03:06:27;;;;;;;4.20;2.08;;;15.60;99.90;;;;;;5101078;28;20051;-68
2023/09/16 03:08:53;;;;;;;3.13;2.10;;;15.60;99.90;;;;;;5085440;28;20061;-68
2023/09/16 03:11:21;;;;;;;3.50;2.33;;;15.50;99.90;;;;;;5105847;28;20049;-68
2023/09/16 03:13:48;;;;;;;4.32;2.30;;;15.50;99.90;;;;;;5104447;28;20020;-68
2023/09/16 03:16:20;;;;;;;4.40;2.50;;;15.50;99.90;;;;;;5101068;28;20028;-68
2023/09/16 03:18:51;;;;;;;4.07;2.58;;;15.50;99.90;;;;;;5102861;28;20034;-68
2023/09/16 03:21:19;;;;;;;3.95;2.60;;;15.50;99.90;;;;;;5104366;28;20601;-68
2023/09/16 03:23:46;;;;;;;3.72;2.20;;;15.40;99.90;;;;;;5102098;28;20027;-68
2023/09/16 03:26:15;;;;;;;5.43;2.20;;;15.40;99.90;;;;;;5103905;28;20653;-68
2023/09/16 03:28:44;;;;;;;3.20;2.40;;;15.40;99.90;;;;;;5096622;28;20036;-68
2023/09/16 03:31:12;;;;;;;4.60;2.22;;;15.40;99.90;;;;;;5102499;28;20161;-68
2023/09/16 03:33:38;;;;;;;5.72;2.60;;;15.40;99.90;;;;;;5103822;28;20594;-68
2023/09/16 03:36:04;;;;;;;3.35;2.22;;;15.40;99.90;;;;;;5102332;28;20037;-68
2023/09/16 03:38:32;;;;;;;6.00;2.40;;;15.40;99.90;;;;;;5103693;28;20031;-68
2023/09/16 03:41:01;;;;;;;7.90;2.38;;;15.40;99.90;;;;;;5099979;28;20039;-68
2023/09/16 03:43:27;;;;;;;3.97;2.35;;;15.40;99.90;;;;;;5103350;28;20133;-67
2023/09/16 03:45:54;;;;;;;5.93;2.50;;;15.40;99.90;;;;;;5098642;28;20032;-69
2023/09/16 03:48:19;;;;;;;3.17;2.33;;;15.40;99.90;;;;;;5104058;28;20031;-68
2023/09/16 03:50:46;;;;;;;6.47;2.30;;;15.30;99.90;;;;;;5104264;28;20027;-68
2023/09/16 03:53:12;;;;;;;3.60;2.10;;;15.40;99.90;;;;;;5105034;28;20032;-68
2023/09/16 03:55:40;;;;;;;4.05;2.35;;;15.30;99.90;;;;;;5103146;28;20539;-68
2023/09/16 03:58:06;;;;;;;3.50;1.98;;;15.30;99.90;;;;;;5105106;28;20100;-68
2023/09/16 04:00:32;;;;;;;3.30;2.13;;;15.30;99.90;;;;;;5103608;28;20173;-68
2023/09/16 04:02:58;;;;;;;5.60;2.65;;;15.30;99.90;;;;;;5099388;28;20126;-68
2023/09/16 04:05:24;;;;;;;8.57;2.70;;;15.30;99.90;;;;;;5103659;28;20030;-68
2023/09/16 04:07:50;;;;;;;2.97;1.80;;;15.30;99.90;;;;;;5102824;28;20040;-68
2023/09/16 04:10:16;;;;;;;3.67;1.88;;;15.20;99.90;;;;;;5086630;28;20088;-68
2023/09/16 04:12:42;;;;;;;3.53;2.00;;;15.20;99.90;;;;;;5104679;28;20759;-68
2023/09/16 04:15:07;;;;;;;3.60;2.25;;;15.20;99.90;;;;;;5104749;28;20058;-68
2023/09/16 04:17:33;;;;;;;2.17;1.98;;;15.20;99.90;;;;;;5103185;28;20031;-68
2023/09/16 04:19:59;;;;;;;4.82;2.58;;;15.20;99.90;;;;;;5104565;28;20043;-68
2023/09/16 04:22:25;;;;;;;3.97;1.80;;;15.20;99.90;;;;;;5099985;28;20037;-68
2023/09/16 04:24:51;;;;;;;6.80;2.63;;;15.10;99.90;;;;;;5101529;28;20407;-68
2023/09/16 04:27:17;;;;;;;4.50;2.20;;;15.10;99.90;;;;;;5104670;28;20094;-68
2023/09/16 04:29:43;;;;;;;3.70;2.35;;;15.10;99.90;;;;;;5103424;28;20111;-68
2023/09/16 04:32:08;;;;;;;5.10;2.13;;;15.10;99.90;;;;;;5103117;28;20138;-68
2023/09/16 04:34:34;;;;;;;4.13;2.28;;;15.00;99.90;;;;;;5098119;28;20020;-68
2023/09/16 04:37:02;;;;;;;5.03;2.13;;;15.00;99.90;;;;;;5101791;28;20605;-68
2023/09/16 04:39:28;;;;;;;3.38;2.33;;;15.00;99.90;;;;;;5103293;28;20110;-68
2023/09/16 04:41:54;;;;;;;4.15;2.50;;;14.90;99.90;;;;;;5103247;28;20118;-69
2023/09/16 04:44:21;;;;;;;3.03;1.98;;;14.90;99.90;;;;;;5101987;28;20081;-68
2023/09/16 04:46:47;;;;;;;4.53;2.25;;;14.90;99.90;;;;;;5100749;28;20035;-68
2023/09/16 04:49:14;;;;;;;4.90;2.30;;;14.90;99.90;;;;;;5102681;28;20512;-68
2023/09/16 04:51:40;;;;;;;5.88;2.40;;;14.90;99.90;;;;;;5099984;28;20043;-68
2023/09/16 04:54:07;;;;;;;3.90;2.17;;;14.80;99.90;;;;;;5103706;28;20023;-68
2023/09/16 04:56:37;;;;;;;5.22;2.00;;;14.80;99.90;;;;;;5104239;28;20073;-68
2023/09/16 04:59:04;;;;;;;3.00;2.13;;;14.90;99.90;;;;;;5106217;28;20114;-68
2023/09/16 05:01:30;;;;;;;3.53;2.35;;;14.80;99.90;;;;;;5106844;28;20050;-68
2023/09/16 05:03:58;;;;;;;3.15;2.20;;;14.80;99.90;;;;;;5106843;28;20116;-68
2023/09/16 05:06:25;;;;;;;2.67;2.10;;;14.80;99.90;;;;;;5106505;28;20019;-68
2023/09/16 05:08:54;;;;;;;4.40;2.00;;;14.80;99.90;;;;;;5106111;28;20032;-68
2023/09/16 05:11:20;;;;;;;3.22;2.00;;;14.80;99.90;;;;;;5106762;28;20047;-68
2023/09/16 05:13:55;;;;;;;4.60;1.67;;;14.80;99.90;;;;;;5103013;28;20028;-68
2023/09/16 05:16:21;;;;;;;3.47;2.00;;;14.90;99.90;;;;;;5104212;28;20305;-68
2023/09/16 05:18:48;;;;;;;5.38;1.58;;;14.90;99.90;;;;;;5105344;28;20179;-67
2023/09/16 05:21:14;;;;;;;4.10;2.22;;;15.00;99.90;;;;;;5106300;28;20026;-68
2023/09/16 05:23:39;;;;;;;2.95;2.05;;;15.00;99.90;;;;;;5107692;28;20558;-68
2023/09/16 05:26:09;;;;;;;3.25;2.10;;;15.00;99.90;;;;;;5106341;28;20020;-68
2023/09/16 05:28:38;;;;;;;4.05;1.90;;;15.10;99.90;;;;;;5106356;28;20028;-68
2023/09/16 05:31:05;;;;;;;3.33;2.30;;;15.10;99.90;;;;;;5096386;28;20042;-68
2023/09/16 05:33:34;;;;;;;4.20;2.17;;;15.20;99.90;;;;;;5106070;28;20558;-68
2023/09/16 05:35:59;;;;;;;2.50;1.88;;;15.10;99.90;;;;;;5107792;28;20027;-68
2023/09/16 05:38:25;;;;;;;4.75;2.20;;;15.20;99.90;;;;;;5106200;28;20490;-68
2023/09/16 05:40:51;;;;;;;3.00;2.08;;;15.20;99.90;;;;;;5106228;28;20024;-68
2023/09/16 05:43:18;;;;;;;2.88;1.92;;;15.20;99.90;;;;;;5105881;28;20023;-68
2023/09/16 05:45:50;;;;;;;4.70;2.45;;;15.20;99.90;;;;;;5107282;27;20027;-68
2023/09/16 05:48:18;;;;;;;4.93;2.40;;;15.30;99.90;;;;;;5107393;28;20498;-68
2023/09/16 05:50:43;;;;;;;3.15;2.20;;;15.30;99.90;;;;;;5106571;28;20043;-69
2023/09/16 05:53:10;;;;;;;3.38;2.47;;;15.30;99.90;;;;;;5097612;28;20027;-69
2023/09/16 05:55:39;;;;;;;3.10;2.17;;;15.30;99.90;;;;;;5106162;28;20557;-69
2023/09/16 05:58:11;;;;;;;3.80;2.17;;;15.40;99.90;;;;;;5105898;28;20023;-68
2023/09/16 06:00:38;;;;;;;3.38;2.13;;;15.40;99.90;;;;;;5105933;28;20028;-68
2023/09/16 06:03:05;;;;;;;4.00;2.35;;;15.50;99.90;;;;;;5105560;28;20122;-68
2023/09/16 06:05:33;;;;;;;5.43;2.45;;;15.50;99.90;;;;;;5105053;28;20042;-68
2023/09/16 06:07:59;;;;;;;4.82;1.95;;;15.50;99.90;;;;;;5104296;28;20061;-68
2023/09/16 06:10:25;;;;;;;3.20;2.22;;;15.60;99.90;;;;;;5105201;28;20035;-68
2023/09/16 06:12:51;;;;;;;3.83;2.47;;;15.60;99.90;;;;;;5105471;28;20043;-68
2023/09/16 06:15:18;;;;;;;7.38;2.22;;;15.70;99.90;;;;;;5105174;28;20682;-68
2023/09/16 06:17:45;;;;;;;6.43;2.72;;;15.70;99.90;;;;;;5107229;28;20027;-68
2023/09/16 06:20:11;;;;;;;2.88;2.10;;;15.70;99.90;;;;;;5105922;28;20030;-68
2023/09/16 06:22:36;;;;;;;2.72;2.03;;;15.80;99.90;;;;;;5105376;28;20062;-68
2023/09/16 06:25:02;;;;;;;4.85;2.20;;;15.80;99.90;;;;;;5105431;28;20032;-68
2023/09/16 06:27:30;;;;;;;3.92;2.33;;;15.90;99.90;;;;;;5105049;28;20038;-68
2023/09/16 06:29:55;;;;;;;3.53;2.20;;;16.00;99.90;;;;;;5105260;28;20031;-68
2023/09/16 06:32:21;;;;;;;5.30;2.30;;;16.00;99.90;;;;;;5105103;28;20030;-68
2023/09/16 06:34:51;;;;;;;3.25;2.33;;;16.10;99.90;;;;;;5104747;28;20078;-69
2023/09/16 06:37:17;;;;;;;4.60;2.50;;;16.20;99.90;;;;;;5106809;28;20518;-68
2023/09/16 06:39:45;;;;;;;3.65;2.38;;;16.20;99.90;;;;;;5105003;28;20027;-68
2023/09/16 06:42:13;;;;;;;3.75;2.08;;;16.30;99.90;;;;;;5099701;28;20638;-68
2023/09/16 06:44:41;;;;;;;5.15;2.40;;;16.40;99.90;;;;;;5104297;28;20035;-68
2023/09/16 06:47:07;;;;;;;3.92;1.90;;;16.40;99.90;;;;;;5106122;28;20034;-69
2023/09/16 06:49:33;;;;;;;3.72;2.17;;;16.50;99.90;;;;;;5103667;28;20197;-68
2023/09/16 06:51:58;;;;;;;5.97;2.33;;;16.70;99.90;;;;;;5106320;28;20425;-68
2023/09/16 06:54:24;;;;;;;3.40;2.50;;;16.80;99.90;;;;;;5106498;28;20543;-68
2023/09/16 06:56:50;;;;;;;3.65;2.40;;;17.00;99.90;;;;;;5103599;28;20093;-68
2023/09/16 06:59:16;;;;;;;6.63;2.30;;;17.30;99.90;;;;;;5106207;28;20437;-69
2023/09/16 07:01:41;;;;;;;4.22;2.30;;;17.50;99.70;;;;;;5105461;28;20085;-68
2023/09/16 07:04:07;;;;;;;3.22;2.03;;;17.60;99.20;;;;;;5102346;28;20084;-68
2023/09/16 07:06:33;;;;;;;3.72;2.53;;;17.70;98.80;;;;;;5102458;28;20027;-68
2023/09/16 07:08:59;;;;;;;3.78;2.22;;;17.60;98.90;;;;;;5106070;28;20078;-69
2023/09/16 07:11:24;;;;;;;3.35;2.33;;;17.70;98.70;;;;;;5105596;28;20050;-68
2023/09/16 07:13:50;;;;;;;3.78;2.28;;;17.80;98.20;;;;;;5105403;28;20039;-68
2023/09/16 07:16:19;;;;;;;3.00;2.03;;;17.80;98.30;;;;;;5105330;28;20127;-69
2023/09/16 07:18:45;;;;;;;3.70;2.33;;;17.80;98.50;;;;;;5105760;28;20028;-69
2023/09/16 07:21:11;;;;;;;5.60;2.40;;;17.80;98.00;;;;;;5105861;28;20608;-68
2023/09/16 07:23:36;;;;;;;5.45;2.08;;;17.90;98.30;;;;;;5105348;28;20566;-69
2023/09/16 07:26:03;;;;;;;4.38;2.10;;;18.00;98.30;;;;;;5105997;28;20042;-68
2023/09/16 07:28:28;;;;;;;4.43;1.80;;;18.10;98.20;;;;;;5105715;28;20024;-69
2023/09/16 07:30:55;;;;;;;5.32;2.53;;;18.10;98.40;;;;;;5103490;28;20031;-69
2023/09/16 07:33:21;;;;;;;5.45;2.50;;;18.20;98.10;;;;;;5095589;28;20141;-69
2023/09/16 07:35:49;;;;;;;6.65;2.22;;;18.20;98.10;;;;;;5105181;28;20907;-68
2023/09/16 07:38:15;;;;;;;4.95;2.50;;;18.30;97.80;;;;;;5105067;28;20031;-68
2023/09/16 07:40:41;;;;;;;3.67;2.47;;;18.40;98.00;;;;;;5105330;28;20042;-69
2023/09/16 07:43:11;;;;;;;8.38;2.45;;;18.60;97.60;;;;;;5103068;28;20036;-69
2023/09/16 07:45:38;;;;;;;3.05;2.15;;;18.70;97.20;;;;;;5104755;28;20122;-68
2023/09/16 07:48:07;;;;;;;6.80;2.28;;;18.80;97.20;;;;;;5105099;28;20035;-69
2023/09/16 07:50:33;;;;;;;7.30;2.40;;;19.00;96.60;;;;;;5105206;28;20027;-69
2023/09/16 07:52:58;;;;;;;4.22;2.33;;;19.10;96.40;;;;;;5103182;28;20489;-69
2023/09/16 07:55:25;;;;;;;4.72;2.38;;;19.20;96.20;;;;;;5105445;28;20024;-68
2023/09/16 07:57:50;;;;;;;6.38;2.88;;;19.40;96.00;;;;;;5105460;28;20069;-69
2023/09/16 08:00:16;;;;;;;2.92;2.15;;;19.40;96.00;;;;;;5097749;28;20029;-69
2023/09/16 08:02:42;;;;;;;4.95;2.75;;;19.40;96.30;;;;;;5103491;28;20031;-69
2023/09/16 08:05:08;;;;;;;3.47;2.33;;;19.40;96.70;;;;;;5104921;28;20538;-69
2023/09/16 08:07:34;;;;;;;3.95;2.40;;;19.40;96.90;;;;;;5104290;28;20429;-69
2023/09/16 08:10:01;;;;;;;4.45;2.25;;;19.40;97.20;;;;;;5105347;28;20039;-68
2023/09/16 08:12:27;;;;;;;4.43;2.47;;;19.50;96.50;;;;;;5104399;28;20032;-69
2023/09/16 08:14:53;;;;;;;3.45;2.20;;;19.50;95.90;;;;;;5104652;28;20070;-69
2023/09/16 08:17:19;;;;;;;3.15;2.38;;;19.50;95.90;;;;;;5104909;28;20024;-69
2023/09/16 08:19:44;;;;;;;4.60;2.55;;;19.50;96.20;;;;;;5104689;28;20715;-69
2023/09/16 08:22:10;;;;;;;2.97;2.08;;;19.60;96.00;;;;;;5100719;28;20394;-69
2023/09/16 08:24:36;;;;;;;3.22;2.20;;;19.70;96.10;;;;;;5104193;28;20046;-69
2023/09/16 08:27:02;;;;;;;5.30;1.90;;;19.70;95.80;;;;;;5102144;28;20086;-69
2023/09/16 08:29:28;;;;;;;5.65;2.40;;;19.70;95.90;;;;;;5108505;28;20622;-69
2023/09/16 08:31:53;;;;;;;3.90;2.15;;;19.80;95.90;;;;;;5108928;28;20111;-68
2023/09/16 08:34:19;;;;;;;3.55;2.45;;;20.00;95.40;;;;;;5105725;28;20027;-69
2023/09/16 08:36:45;;;;;;;3.47;2.15;;;20.10;95.40;;;;;;5108951;28;20067;-69
2023/09/16 08:39:11;;;;;;;4.57;2.05;;;20.20;95.50;;;;;;5109254;28;20024;-69
2023/09/16 08:41:39;;;;;;;4.60;2.33;;;20.30;95.50;;;;;;5101523;28;20039;-69
2023/09/16 08:44:08;;;;;;;4.28;2.00;;;20.40;94.90;;;;;;5108781;28;20089;-68
2023/09/16 08:46:41;;;;;;;4.47;2.25;;;20.50;94.60;;;;;;5104692;28;20040;-68
2023/09/16 08:49:09;;;;;;;6.03;2.50;;;20.60;95.00;;;;;;5102758;28;20023;-68
2023/09/16 08:51:39;;;;;;;3.22;1.98;;;20.70;94.20;;;;;;5104816;28;20045;-68
2023/09/16 08:54:07;;;;;;;3.03;2.00;;;20.80;94.50;;;;;;5106458;28;20027;-68
2023/09/16 08:56:33;;;;;;;2.92;2.10;;;20.90;94.20;;;;;;5107952;28;20046;-69
2023/09/16 08:59:00;;;;;;;3.17;2.22;;;21.10;93.80;;;;;;5106419;28;20028;-69
2023/09/16 09:01:26;;;;;;;2.08;1.80;;;21.30;93.50;;;;;;5108365;28;20477;-69
2023/09/16 09:03:54;;;;;;;2.88;2.40;;;21.70;93.80;;;;;;5105799;28;20048;-69
2023/09/16 09:06:21;;;;;;;5.90;2.28;;;22.10;93.30;;;;;;5103368;28;20686;-69
2023/09/16 09:08:47;;;;;;;4.88;2.60;;;22.20;92.10;;;;;;5108446;28;20063;-69
2023/09/16 09:11:14;;;;;;;3.65;2.00;;;22.30;92.50;;;;;;5108350;28;20058;-69
2023/09/16 09:13:45;;;;;;;5.28;1.77;;;22.30;91.80;;;;;;5107907;28;20043;-69
2023/09/16 09:16:16;;;;;;;3.67;2.22;;;22.30;91.50;;;;;;5107609;28;20058;-68
2023/09/16 09:18:44;;;;;;;5.78;2.30;;;22.30;91.80;;;;;;5108322;28;20081;-69
2023/09/16 09:21:11;;;;;;;3.30;2.30;;;22.40;91.30;;;;;;5100121;28;20031;-69
2023/09/16 09:23:36;;;;;;;3.40;2.00;;;22.50;91.10;;;;;;5108256;27;20031;-69
2023/09/16 09:26:02;;;;;;;4.38;2.58;;;22.50;90.90;;;;;;5108068;28;20092;-69
2023/09/16 09:28:28;;;;;;;4.90;2.65;;;22.60;91.60;;;;;;5102182;28;20040;-69
2023/09/16 09:30:56;;;;;;;4.50;2.70;;;22.70;90.60;;;;;;5102512;28;20138;-69
2023/09/16 09:33:26;;;;;;;4.78;2.08;;;22.70;90.70;;;;;;5108026;28;20032;-69
2023/09/16 09:36:12;;;;;;;3.47;2.30;;;22.60;90.40;;;;;;5105520;28;20036;-69
2023/09/16 09:38:40;;;;;;;3.60;1.98;;;22.60;90.60;;;;;;5107633;28;20031;-69
2023/09/16 09:41:06;;;;;;;4.43;2.17;;;22.60;90.70;;;;;;5107074;28;20434;-69
2023/09/16 09:43:32;;;;;;;4.47;2.00;;;22.70;91.00;;;;;;5107843;28;20031;-69
2023/09/16 09:45:58;;;;;;;6.47;2.55;;;22.70;91.00;;;;;;5106393;28;20778;-69
2023/09/16 09:48:24;;;;;;;2.00;1.80;;;22.90;90.90;;;;;;5106184;28;20063;-69
2023/09/16 09:50:50;;;;;;;5.45;2.15;;;22.90;91.30;;;;;;5107093;28;20059;-69
2023/09/16 09:53:15;;;;;;;4.43;2.17;;;23.00;90.40;;;;;;5107441;28;20023;-69
2023/09/16 09:55:41;;;;;;;4.75;2.72;;;23.10;90.90;;;;;;5104949;28;20529;-69
2023/09/16 09:58:07;;;;;;;3.90;2.38;;;23.30;90.70;;;;;;5107296;28;20034;-69
2023/09/16 10:00:33;;;;;;;4.18;2.30;;;23.30;90.00;;;;;;5107454;28;20041;-70
2023/09/16 10:03:00;;;;;;;3.40;2.10;;;23.40;89.60;;;;;;5107074;28;20049;-69
2023/09/16 10:05:26;;;;;;;5.18;2.20;;;23.40;89.30;;;;;;5107650;28;20524;-69
2023/09/16 10:07:53;;;;;;;2.70;2.03;;;23.60;87.60;;;;;;5107275;28;20510;-69
2023/09/16 10:10:20;;;;;;;2.53;2.10;;;23.70;88.20;;;;;;5107273;28;20479;-68
2023/09/16 10:12:47;;;;;;;3.25;2.00;;;23.80;86.60;;;;;;5107373;28;20117;-70
2023/09/16 10:15:13;;;;;;;3.17;2.45;;;23.90;88.00;;;;;;5107202;28;20111;-68
2023/09/16 10:17:42;;;;;;;4.05;2.38;;;23.90;87.70;;;;;;5103463;28;20027;-69
2023/09/16 10:20:10;;;;;;;5.63;2.03;;;23.80;86.80;;;;;;5107378;28;20055;-69
2023/09/16 10:22:39;;;;;;;3.03;1.95;;;23.80;87.80;;;;;;5103008;28;20068;-69
2023/09/16 10:25:05;;;;;;;4.05;2.17;;;23.80;87.70;;;;;;5105857;28;20092;-69
2023/09/16 10:27:37;;;;;;;2.78;2.17;;;24.00;87.10;;;;;;5105957;28;20032;-69
2023/09/16 10:30:04;;;;;;;2.78;2.13;;;24.60;85.80;;;;;;5106884;28;20095;-69
2023/09/16 10:32:30;;;;;;;6.50;2.30;;;24.90;82.70;;;;;;5106704;28;20059;-69
2023/09/16 10:35:02;;;;;;;4.10;2.33;;;24.90;83.20;;;;;;5106884;28;20059;-69
2023/09/16 10:37:29;;;;;;;2.95;2.20;;;24.90;84.60;;;;;;5106555;28;20031;-69
2023/09/16 10:39:55;;;;;;;3.08;2.35;;;24.80;84.10;;;;;;5106579;28;20055;-69
2023/09/16 10:42:22;;;;;;;6.53;2.47;;;24.80;84.20;;;;;;5101201;28;20036;-69
2023/09/16 10:44:48;;;;;;;6.50;2.00;;;25.00;82.60;;;;;;5100319;28;20114;-69
2023/09/16 10:47:17;;;;;;;3.88;2.33;;;25.40;82.40;;;;;;5105998;28;20413;-69
2023/09/16 10:49:46;;;;;;;3.63;2.55;;;25.70;80.40;;;;;;5106726;28;20043;-70
2023/09/16 10:52:16;;;;;;;4.13;2.83;;;25.70;78.80;;;;;;5099781;27;20028;-68
2023/09/16 10:54:51;;;;;;;3.78;2.55;;;25.60;80.00;;;;;;5102399;28;20471;-69
2023/09/16 10:57:25;;;;;;;3.97;2.55;;;25.40;80.80;;;;;;5102693;28;20035;-68
2023/09/16 10:59:52;;;;;;;3.20;2.28;;;25.30;80.60;;;;;;5106607;28;20890;-69
2023/09/16 11:02:53;;;;;;;4.45;2.53;;;25.30;79.90;;;;;;5106405;28;20031;-69
2023/09/16 11:05:19;;;;;;;4.18;2.40;;;25.20;80.70;;;;;;5067184;28;20043;-69
2023/09/16 11:07:45;;;;;;;3.72;2.40;;;25.10;80.50;;;;;;5106367;28;20092;-69
2023/09/16 11:10:12;;;;;;;3.10;2.47;;;25.00;80.60;;;;;;5105655;28;20664;-69
2023/09/16 11:12:38;;;;;;;4.22;2.65;;;24.80;81.70;;;;;;5105911;28;20392;-69
2023/09/16 11:15:08;;;;;;;4.10;2.22;;;24.80;79.90;;;;;;5105916;28;20088;-69
2023/09/16 11:17:36;;;;;;;3.65;2.22;;;24.80;79.90;;;;;;5106148;28;20467;-69
2023/09/16 11:20:23;;;;;;;3.03;2.50;;;24.80;82.10;;;;;;5106188;28;20104;-69
2023/09/16 11:22:49;;;;;;;2.60;2.15;;;24.80;81.30;;;;;;5105622;28;20043;-68
2023/09/16 11:25:15;;;;;;;5.55;2.35;;;24.80;81.20;;;;;;5104308;28;20304;-69
2023/09/16 11:27:41;;;;;;;4.22;2.50;;;24.80;81.80;;;;;;5101466;28;20492;-69
2023/09/16 11:30:14;;;;;;;3.28;2.30;;;24.90;81.50;;;;;;5103623;27;20023;-69
2023/09/16 11:33:01;;;;;;;3.50;2.50;;;25.00;81.10;;;;;;5101838;28;20456;-69
2023/09/16 11:35:27;;;;;;;6.20;2.42;;;25.10;82.70;;;;;;5100998;28;20040;-69
2023/09/16 11:37:57;;;;;;;3.80;2.47;;;25.20;79.60;;;;;;5101932;28;20096;-69
2023/09/16 11:40:31;;;;;;;4.97;2.63;;;25.30;80.80;;;;;;5099730;28;20619;-69
2023/09/16 11:42:58;;;;;;;5.00;2.47;;;25.30;79.90;;;;;;5101632;28;20051;-68
2023/09/16 11:45:25;;;;;;;4.28;2.42;;;25.30;80.00;;;;;;5105702;28;20027;-69
2023/09/16 11:47:52;;;;;;;3.65;2.45;;;25.20;80.40;;;;;;5104663;28;20061;-69
2023/09/16 11:50:25;;;;;;;3.05;2.75;;;25.20;81.10;;;;;;5104137;28;20027;-68
2023/09/16 11:52:51;;;;;;;2.50;2.20;;;25.30;80.40;;;;;;5101792;28;20043;-69
2023/09/16 11:55:17;;;;;;;2.58;2.38;;;25.20;78.40;;;;;;5102386;28;20038;-70
2023/09/16 11:57:45;;;;;;;4.15;2.97;;;25.30;80.50;;;;;;5098872;28;20048;-69
2023/09/16 12:00:12;;;;;;;6.22;2.80;;;25.40;79.30;;;;;;5103948;28;20045;-68
2023/09/16 12:02:38;;;;;;;3.70;2.72;;;25.40;78.60;;;;;;5101849;28;20040;-70
2023/09/16 12:05:04;;;;;;;3.67;2.30;;;25.40;78.70;;;;;;5103597;28;20043;-69
2023/09/16 12:07:31;;;;;;;4.28;2.50;;;25.40;79.70;;;;;;5105344;28;20098;-69
2023/09/16 12:09:59;;;;;;;5.45;2.47;;;25.60;80.10;;;;;;5104221;28;20045;-69
2023/09/16 12:12:25;;;;;;;3.05;2.60;;;25.70;78.00;;;;;;5105175;28;20036;-69
2023/09/16 12:14:52;;;;;;;5.32;3.00;;;25.60;77.60;;;;;;5105015;28;20104;-69
2023/09/16 12:17:18;;;;;;;3.20;2.33;;;25.60;78.70;;;;;;5104714;28;20028;-69
2023/09/16 12:19:50;;;;;;;4.20;2.83;;;25.70;80.20;;;;;;5102036;28;20023;-70
2023/09/16 12:22:17;;;;;;;3.75;2.85;;;25.70;78.30;;;;;;5104193;28;20513;-68
2023/09/16 12:24:43;;;;;;;3.17;2.42;;;25.70;76.50;;;;;;5101369;28;20042;-69
2023/09/16 12:27:09;;;;;;;3.17;2.60;;;25.50;77.70;;;;;;5105067;28;20031;-68
2023/09/16 12:29:34;;;;;;;4.20;2.65;;;25.50;76.80;;;;;;5105069;28;20050;-70
2023/09/16 12:32:10;;;;;;;3.00;2.50;;;25.60;79.40;;;;;;5101461;28;20047;-69
2023/09/16 12:34:38;;;;;;;7.22;2.65;;;25.60;78.20;;;;;;5105135;28;20111;-69
2023/09/16 12:37:04;;;;;;;5.05;2.92;;;25.70;76.70;;;;;;5104960;28;20831;-69
2023/09/16 12:39:34;;;;;;;2.83;2.33;;;25.70;78.20;;;;;;5104896;28;20123;-69
2023/09/16 12:42:04;;;;;;;4.38;2.70;;;25.70;76.60;;;;;;5105122;28;20170;-69
2023/09/16 12:44:31;;;;;;;5.45;2.95;;;25.70;77.10;;;;;;5099519;28;20391;-69
2023/09/16 12:46:58;;;;;;;3.17;2.80;;;25.70;78.00;;;;;;5104532;28;20043;-69